sensor_id;sensor_type;location;lat;lon;timestamp;pressure;altitude;pressure_sealevel;temperature;humidity
62632;BME280;48703;51.248;-0.546;2023-05-22T00:01:11;101378;;;12.28;63.58
62632;BME280;48703;51.248;-0.546;2023-05-22T00:04:12;101378;;;12.25;64.38
62632;BME280;48703;51.248;-0.546;2023-05-22T00:07:14;101375;;;12.22;63.83
62632;BME280;48703;51.248;-0.546;2023-05-22T00:10:16;101374;;;12.22;63.84
62632;BME280;48703;51.248;-0.546;2023-05-22T00:13:18;101375;;;12.22;64.01
62632;BME280;48703;51.248;-0.546;2023-05-22T00:16:20;101375;;;12.22;64.02
62632;BME280;48703;51.248;-0.546;2023-05-22T00:19:22;101372;;;12.19;64.33
62632;BME280;48703;51.248;-0.546;2023-05-22T00:22:24;101366;;;12.16;64.38
62632;BME280;48703;51.248;-0.546;2023-05-22T00:25:26;101362;;;12.12;64.16
62632;BME280;48703;51.248;-0.546;2023-05-22T00:28:27;101358;;;12.11;64.25
62632;BME280;48703;51.248;-0.546;2023-05-22T00:31:29;101354;;;12.11;64.68
62632;BME280;48703;51.248;-0.546;2023-05-22T00:34:31;101353;;;12.10;64.46
62632;BME280;48703;51.248;-0.546;2023-05-22T00:37:33;101352;;;12.10;65.00
62632;BME280;48703;51.248;-0.546;2023-05-22T00:40:35;101351;;;12.09;64.66
62632;BME280;48703;51.248;-0.546;2023-05-22T00:43:37;101349;;;12.08;64.63
62632;BME280;48703;51.248;-0.546;2023-05-22T00:46:38;101349;;;12.06;65.44
62632;BME280;48703;51.248;-0.546;2023-05-22T00:49:40;101346;;;12.05;65.69
62632;BME280;48703;51.248;-0.546;2023-05-22T00:52:42;101345;;;12.01;66.83
62632;BME280;48703;51.248;-0.546;2023-05-22T00:55:44;101343;;;11.98;66.42
62632;BME280;48703;51.248;-0.546;2023-05-22T00:58:46;101344;;;11.93;66.73
62632;BME280;48703;51.248;-0.546;2023-05-22T01:01:48;101345;;;11.86;67.17
62632;BME280;48703;51.248;-0.546;2023-05-22T01:04:50;101345;;;11.82;66.31
62632;BME280;48703;51.248;-0.546;2023-05-22T01:07:51;101346;;;11.79;66.57
62632;BME280;48703;51.248;-0.546;2023-05-22T01:10:55;101347;;;11.77;66.97
62632;BME280;48703;51.248;-0.546;2023-05-22T01:13:57;101343;;;11.74;67.06
62632;BME280;48703;51.248;-0.546;2023-05-22T01:16:59;101339;;;11.69;68.67
62632;BME280;48703;51.248;-0.546;2023-05-22T01:20:01;101336;;;11.66;68.33
62632;BME280;48703;51.248;-0.546;2023-05-22T01:23:13;101333;;;11.61;68.01
62632;BME280;48703;51.248;-0.546;2023-05-22T01:26:41;101331;;;11.59;68.92
62632;BME280;48703;51.248;-0.546;2023-05-22T01:29:08;101332;;;11.55;68.74
62632;BME280;48703;51.248;-0.546;2023-05-22T01:32:06;101332;;;11.47;70.40
62632;BME280;48703;51.248;-0.546;2023-05-22T01:35:09;101329;;;11.42;70.74
62632;BME280;48703;51.248;-0.546;2023-05-22T01:38:10;101328;;;11.35;70.35
62632;BME280;48703;51.248;-0.546;2023-05-22T01:41:12;101326;;;11.28;71.57
62632;BME280;48703;51.248;-0.546;2023-05-22T01:44:14;101324;;;11.24;71.83
62632;BME280;48703;51.248;-0.546;2023-05-22T01:47:16;101323;;;11.18;71.95
62632;BME280;48703;51.248;-0.546;2023-05-22T01:50:18;101322;;;11.14;71.99
62632;BME280;48703;51.248;-0.546;2023-05-22T01:53:22;101321;;;11.10;72.66
62632;BME280;48703;51.248;-0.546;2023-05-22T01:56:22;101319;;;11.07;73.21
62632;BME280;48703;51.248;-0.546;2023-05-22T01:59:25;101316;;;10.99;73.55
62632;BME280;48703;51.248;-0.546;2023-05-22T02:02:25;101316;;;10.90;74.09
62632;BME280;48703;51.248;-0.546;2023-05-22T02:05:27;101318;;;10.87;74.50
62632;BME280;48703;51.248;-0.546;2023-05-22T02:08:29;101317;;;10.77;74.36
62632;BME280;48703;51.248;-0.546;2023-05-22T02:11:31;101315;;;10.75;74.90
62632;BME280;48703;51.248;-0.546;2023-05-22T02:14:33;101316;;;10.70;75.37
62632;BME280;48703;51.248;-0.546;2023-05-22T02:17:35;101317;;;10.66;75.34
62632;BME280;48703;51.248;-0.546;2023-05-22T02:20:36;101316;;;10.62;76.02
62632;BME280;48703;51.248;-0.546;2023-05-22T02:23:38;101311;;;10.54;76.16
62632;BME280;48703;51.248;-0.546;2023-05-22T02:26:40;101309;;;10.51;75.64
62632;BME280;48703;51.248;-0.546;2023-05-22T02:29:42;101308;;;10.51;75.74
62632;BME280;48703;51.248;-0.546;2023-05-22T02:32:44;101306;;;10.50;76.46
62632;BME280;48703;51.248;-0.546;2023-05-22T02:35:46;101304;;;10.52;75.53
62632;BME280;48703;51.248;-0.546;2023-05-22T02:38:47;101301;;;10.53;75.42
62632;BME280;48703;51.248;-0.546;2023-05-22T02:41:49;101301;;;10.55;75.34
62632;BME280;48703;51.248;-0.546;2023-05-22T02:44:51;101305;;;10.58;74.85
62632;BME280;48703;51.248;-0.546;2023-05-22T02:47:53;101308;;;10.57;75.52
62632;BME280;48703;51.248;-0.546;2023-05-22T02:50:55;101309;;;10.60;75.15
62632;BME280;48703;51.248;-0.546;2023-05-22T02:53:57;101312;;;10.57;76.03
62632;BME280;48703;51.248;-0.546;2023-05-22T02:56:59;101314;;;10.58;75.08
62632;BME280;48703;51.248;-0.546;2023-05-22T03:00:01;101314;;;10.61;74.81
62632;BME280;48703;51.248;-0.546;2023-05-22T03:03:02;101310;;;10.63;75.24
62632;BME280;48703;51.248;-0.546;2023-05-22T03:06:04;101308;;;10.64;75.34
62632;BME280;48703;51.248;-0.546;2023-05-22T03:09:06;101307;;;10.65;74.94
62632;BME280;48703;51.248;-0.546;2023-05-22T03:12:09;101307;;;10.66;74.70
62632;BME280;48703;51.248;-0.546;2023-05-22T03:15:10;101304;;;10.69;74.61
62632;BME280;48703;51.248;-0.546;2023-05-22T03:18:12;101306;;;10.67;75.38
62632;BME280;48703;51.248;-0.546;2023-05-22T03:21:14;101306;;;10.65;75.27
62632;BME280;48703;51.248;-0.546;2023-05-22T03:24:15;101303;;;10.61;75.47
62632;BME280;48703;51.248;-0.546;2023-05-22T03:27:17;101301;;;10.50;76.35
62632;BME280;48703;51.248;-0.546;2023-05-22T03:30:19;101300;;;10.43;76.28
62632;BME280;48703;51.248;-0.546;2023-05-22T03:33:21;101299;;;10.46;75.97
62632;BME280;48703;51.248;-0.546;2023-05-22T03:36:23;101297;;;10.48;75.89
62632;BME280;48703;51.248;-0.546;2023-05-22T03:39:25;101297;;;10.45;76.06
62632;BME280;48703;51.248;-0.546;2023-05-22T03:42:27;101294;;;10.46;76.50
62632;BME280;48703;51.248;-0.546;2023-05-22T03:45:28;101294;;;10.48;75.66
62632;BME280;48703;51.248;-0.546;2023-05-22T03:48:32;101294;;;10.46;76.22
62632;BME280;48703;51.248;-0.546;2023-05-22T03:51:32;101293;;;10.46;77.01
62632;BME280;48703;51.248;-0.546;2023-05-22T03:54:34;101293;;;10.44;76.57
62632;BME280;48703;51.248;-0.546;2023-05-22T03:57:36;101292;;;10.47;75.73
62632;BME280;48703;51.248;-0.546;2023-05-22T04:00:38;101289;;;10.51;75.70
62632;BME280;48703;51.248;-0.546;2023-05-22T04:03:40;101290;;;10.52;76.28
62632;BME280;48703;51.248;-0.546;2023-05-22T04:06:42;101292;;;10.53;75.94
62632;BME280;48703;51.248;-0.546;2023-05-22T04:09:43;101292;;;10.52;76.84
62632;BME280;48703;51.248;-0.546;2023-05-22T04:12:45;101293;;;10.52;76.28
62632;BME280;48703;51.248;-0.546;2023-05-22T04:15:47;101296;;;10.52;76.16
62632;BME280;48703;51.248;-0.546;2023-05-22T04:18:49;101298;;;10.52;75.75
62632;BME280;48703;51.248;-0.546;2023-05-22T04:21:51;101298;;;10.55;75.67
62632;BME280;48703;51.248;-0.546;2023-05-22T04:24:53;101300;;;10.55;75.94
62632;BME280;48703;51.248;-0.546;2023-05-22T04:27:55;101301;;;10.55;75.78
62632;BME280;48703;51.248;-0.546;2023-05-22T04:30:56;101298;;;10.55;75.81
62632;BME280;48703;51.248;-0.546;2023-05-22T04:33:58;101301;;;10.56;75.89
62632;BME280;48703;51.248;-0.546;2023-05-22T04:37:00;101299;;;10.57;76.27
62632;BME280;48703;51.248;-0.546;2023-05-22T04:40:02;101301;;;10.59;76.12
62632;BME280;48703;51.248;-0.546;2023-05-22T04:43:04;101301;;;10.60;76.25
62632;BME280;48703;51.248;-0.546;2023-05-22T04:46:06;101300;;;10.62;76.16
62632;BME280;48703;51.248;-0.546;2023-05-22T04:49:08;101300;;;10.65;76.13
62632;BME280;48703;51.248;-0.546;2023-05-22T04:52:10;101301;;;10.66;76.48
62632;BME280;48703;51.248;-0.546;2023-05-22T04:55:12;101300;;;10.68;76.17
62632;BME280;48703;51.248;-0.546;2023-05-22T04:58:13;101303;;;10.70;76.36
62632;BME280;48703;51.248;-0.546;2023-05-22T05:01:15;101306;;;10.72;76.99
62632;BME280;48703;51.248;-0.546;2023-05-22T05:04:17;101310;;;10.75;76.78
62632;BME280;48703;51.248;-0.546;2023-05-22T05:07:19;101311;;;10.78;76.80
62632;BME280;48703;51.248;-0.546;2023-05-22T05:10:21;101309;;;10.81;76.80
62632;BME280;48703;51.248;-0.546;2023-05-22T05:13:23;101310;;;10.84;76.50
62632;BME280;48703;51.248;-0.546;2023-05-22T05:16:24;101312;;;10.87;76.52
62632;BME280;48703;51.248;-0.546;2023-05-22T05:19:26;101317;;;10.90;76.49
62632;BME280;48703;51.248;-0.546;2023-05-22T05:22:28;101320;;;10.94;76.69
62632;BME280;48703;51.248;-0.546;2023-05-22T05:25:30;101322;;;10.97;76.01
62632;BME280;48703;51.248;-0.546;2023-05-22T05:28:32;101326;;;11.01;76.42
62632;BME280;48703;51.248;-0.546;2023-05-22T05:31:34;101330;;;11.06;76.12
62632;BME280;48703;51.248;-0.546;2023-05-22T05:34:36;101333;;;11.10;76.15
62632;BME280;48703;51.248;-0.546;2023-05-22T05:37:37;101336;;;11.15;76.55
62632;BME280;48703;51.248;-0.546;2023-05-22T05:40:39;101340;;;11.18;76.04
62632;BME280;48703;51.248;-0.546;2023-05-22T05:43:41;101341;;;11.23;76.07
62632;BME280;48703;51.248;-0.546;2023-05-22T05:46:43;101341;;;11.28;75.85
62632;BME280;48703;51.248;-0.546;2023-05-22T05:49:45;101340;;;11.32;75.52
62632;BME280;48703;51.248;-0.546;2023-05-22T05:52:47;101338;;;11.37;75.71
62632;BME280;48703;51.248;-0.546;2023-05-22T05:55:49;101337;;;11.43;75.35
62632;BME280;48703;51.248;-0.546;2023-05-22T05:58:51;101339;;;11.49;75.36
62632;BME280;48703;51.248;-0.546;2023-05-22T06:01:52;101338;;;11.54;74.87
62632;BME280;48703;51.248;-0.546;2023-05-22T06:04:54;101337;;;11.59;74.80
62632;BME280;48703;51.248;-0.546;2023-05-22T06:07:56;101340;;;11.64;74.47
62632;BME280;48703;51.248;-0.546;2023-05-22T06:10:58;101342;;;11.67;74.07
62632;BME280;48703;51.248;-0.546;2023-05-22T06:14:00;101344;;;11.72;74.28
62632;BME280;48703;51.248;-0.546;2023-05-22T06:17:02;101350;;;11.75;73.83
62632;BME280;48703;51.248;-0.546;2023-05-22T06:20:04;101352;;;11.80;73.76
62632;BME280;48703;51.248;-0.546;2023-05-22T06:23:05;101355;;;11.86;74.09
62632;BME280;48703;51.248;-0.546;2023-05-22T06:26:07;101358;;;11.91;73.43
62632;BME280;48703;51.248;-0.546;2023-05-22T06:29:09;101361;;;11.95;73.36
62632;BME280;48703;51.248;-0.546;2023-05-22T06:32:11;101365;;;12.01;73.54
62632;BME280;48703;51.248;-0.546;2023-05-22T06:35:13;101363;;;12.06;73.28
62632;BME280;48703;51.248;-0.546;2023-05-22T06:38:15;101365;;;12.11;73.28
62632;BME280;48703;51.248;-0.546;2023-05-22T06:41:17;101369;;;12.16;72.80
62632;BME280;48703;51.248;-0.546;2023-05-22T06:44:18;101375;;;12.22;72.87
62632;BME280;48703;51.248;-0.546;2023-05-22T06:47:20;101378;;;12.28;72.42
62632;BME280;48703;51.248;-0.546;2023-05-22T06:50:22;101380;;;12.32;72.35
62632;BME280;48703;51.248;-0.546;2023-05-22T06:53:24;101384;;;12.36;71.98
62632;BME280;48703;51.248;-0.546;2023-05-22T06:56:26;101388;;;12.40;72.02
62632;BME280;48703;51.248;-0.546;2023-05-22T06:59:29;101393;;;12.46;72.76
62632;BME280;48703;51.248;-0.546;2023-05-22T07:02:30;101395;;;12.50;71.79
62632;BME280;48703;51.248;-0.546;2023-05-22T07:05:32;101399;;;12.54;71.64
62632;BME280;48703;51.248;-0.546;2023-05-22T07:08:33;101402;;;12.58;71.68
62632;BME280;48703;51.248;-0.546;2023-05-22T07:11:36;101405;;;12.64;71.45
62632;BME280;48703;51.248;-0.546;2023-05-22T07:14:37;101408;;;12.71;70.90
62632;BME280;48703;51.248;-0.546;2023-05-22T07:17:39;101409;;;12.77;70.53
62632;BME280;48703;51.248;-0.546;2023-05-22T07:20:41;101411;;;12.86;69.64
62632;BME280;48703;51.248;-0.546;2023-05-22T07:23:43;101410;;;12.92;69.19
62632;BME280;48703;51.248;-0.546;2023-05-22T07:26:45;101411;;;12.99;69.63
62632;BME280;48703;51.248;-0.546;2023-05-22T07:29:46;101408;;;13.06;69.12
62632;BME280;48703;51.248;-0.546;2023-05-22T07:32:48;101410;;;13.14;69.64
62632;BME280;48703;51.248;-0.546;2023-05-22T07:35:50;101413;;;13.23;69.46
62632;BME280;48703;51.248;-0.546;2023-05-22T07:38:52;101415;;;13.31;69.53
62632;BME280;48703;51.248;-0.546;2023-05-22T07:41:54;101418;;;13.36;68.26
62632;BME280;48703;51.248;-0.546;2023-05-22T07:44:56;101421;;;13.41;67.77
62632;BME280;48703;51.248;-0.546;2023-05-22T07:47:58;101424;;;13.49;68.09
62632;BME280;48703;51.248;-0.546;2023-05-22T07:51:00;101427;;;13.60;67.65
62632;BME280;48703;51.248;-0.546;2023-05-22T07:54:01;101429;;;13.68;67.10
62632;BME280;48703;51.248;-0.546;2023-05-22T07:57:03;101432;;;13.75;67.40
62632;BME280;48703;51.248;-0.546;2023-05-22T08:00:06;101436;;;13.82;66.71
62632;BME280;48703;51.248;-0.546;2023-05-22T08:03:07;101443;;;13.84;66.02
62632;BME280;48703;51.248;-0.546;2023-05-22T08:06:09;101447;;;13.82;66.51
62632;BME280;48703;51.248;-0.546;2023-05-22T08:09:11;101449;;;13.80;65.71
62632;BME280;48703;51.248;-0.546;2023-05-22T08:12:13;101450;;;13.78;66.13
62632;BME280;48703;51.248;-0.546;2023-05-22T08:15:14;101452;;;13.77;66.65
62632;BME280;48703;51.248;-0.546;2023-05-22T08:18:16;101455;;;13.76;66.36
62632;BME280;48703;51.248;-0.546;2023-05-22T08:21:18;101458;;;13.73;66.15
62632;BME280;48703;51.248;-0.546;2023-05-22T08:24:20;101459;;;13.72;66.54
62632;BME280;48703;51.248;-0.546;2023-05-22T08:27:22;101456;;;13.71;66.25
62632;BME280;48703;51.248;-0.546;2023-05-22T08:30:24;101456;;;13.70;66.04
62632;BME280;48703;51.248;-0.546;2023-05-22T08:33:26;101459;;;13.71;66.16
62632;BME280;48703;51.248;-0.546;2023-05-22T08:36:28;101461;;;13.73;65.41
62632;BME280;48703;51.248;-0.546;2023-05-22T08:39:29;101469;;;13.76;65.47
62632;BME280;48703;51.248;-0.546;2023-05-22T08:42:31;101470;;;13.77;65.25
62632;BME280;48703;51.248;-0.546;2023-05-22T08:45:33;101471;;;13.78;65.88
62632;BME280;48703;51.248;-0.546;2023-05-22T08:48:35;101471;;;13.80;65.71
62632;BME280;48703;51.248;-0.546;2023-05-22T08:51:39;101474;;;13.83;65.83
62632;BME280;48703;51.248;-0.546;2023-05-22T08:54:39;101476;;;13.88;66.18
62632;BME280;48703;51.248;-0.546;2023-05-22T08:57:41;101476;;;13.90;66.79
62632;BME280;48703;51.248;-0.546;2023-05-22T09:00:42;101476;;;13.88;65.55
62632;BME280;48703;51.248;-0.546;2023-05-22T09:03:45;101476;;;13.91;66.36
62632;BME280;48703;51.248;-0.546;2023-05-22T09:06:46;101475;;;13.92;65.38
62632;BME280;48703;51.248;-0.546;2023-05-22T09:09:48;101474;;;13.93;65.78
62632;BME280;48703;51.248;-0.546;2023-05-22T09:13:06;101475;;;13.93;65.48
62632;BME280;48703;51.248;-0.546;2023-05-22T09:15:52;101477;;;13.94;66.22
62632;BME280;48703;51.248;-0.546;2023-05-22T09:18:54;101477;;;13.99;67.06
62632;BME280;48703;51.248;-0.546;2023-05-22T09:22:00;101480;;;14.04;65.41
62632;BME280;48703;51.248;-0.546;2023-05-22T09:24:57;101483;;;14.09;65.04
62632;BME280;48703;51.248;-0.546;2023-05-22T09:27:59;101486;;;14.14;65.15
62632;BME280;48703;51.248;-0.546;2023-05-22T09:31:01;101485;;;14.19;65.41
62632;BME280;48703;51.248;-0.546;2023-05-22T09:34:03;101481;;;14.26;66.66
62632;BME280;48703;51.248;-0.546;2023-05-22T09:37:05;101483;;;14.33;65.12
62632;BME280;48703;51.248;-0.546;2023-05-22T09:40:07;101482;;;14.39;65.36
62632;BME280;48703;51.248;-0.546;2023-05-22T09:43:09;101482;;;14.42;64.94
62632;BME280;48703;51.248;-0.546;2023-05-22T09:46:11;101482;;;14.46;64.46
62632;BME280;48703;51.248;-0.546;2023-05-22T09:49:12;101485;;;14.55;63.75
62632;BME280;48703;51.248;-0.546;2023-05-22T09:52:14;101482;;;14.58;63.19
62632;BME280;48703;51.248;-0.546;2023-05-22T09:55:16;101477;;;14.62;62.83
62632;BME280;48703;51.248;-0.546;2023-05-22T09:58:18;101475;;;14.69;63.18
62632;BME280;48703;51.248;-0.546;2023-05-22T10:01:20;101476;;;14.69;61.53
62632;BME280;48703;51.248;-0.546;2023-05-22T10:04:22;101477;;;14.68;62.18
62632;BME280;48703;51.248;-0.546;2023-05-22T10:07:26;101478;;;14.69;61.25
62632;BME280;48703;51.248;-0.546;2023-05-22T10:10:25;101479;;;14.69;61.05
62632;BME280;48703;51.248;-0.546;2023-05-22T10:13:27;101478;;;14.73;61.76
62632;BME280;48703;51.248;-0.546;2023-05-22T10:16:29;101480;;;14.75;61.34
62632;BME280;48703;51.248;-0.546;2023-05-22T10:19:31;101480;;;14.78;61.13
62632;BME280;48703;51.248;-0.546;2023-05-22T10:22:33;101480;;;14.85;61.79
62632;BME280;48703;51.248;-0.546;2023-05-22T10:25:36;101482;;;14.88;61.61
62632;BME280;48703;51.248;-0.546;2023-05-22T10:28:38;101484;;;14.87;61.79
62632;BME280;48703;51.248;-0.546;2023-05-22T10:31:40;101481;;;14.87;63.22
62632;BME280;48703;51.248;-0.546;2023-05-22T10:34:46;101479;;;14.86;62.13
62632;BME280;48703;51.248;-0.546;2023-05-22T10:37:44;101483;;;14.88;61.34
62632;BME280;48703;51.248;-0.546;2023-05-22T10:40:44;101483;;;14.89;60.97
62632;BME280;48703;51.248;-0.546;2023-05-22T10:43:47;101483;;;14.92;61.27
62632;BME280;48703;51.248;-0.546;2023-05-22T10:46:48;101488;;;14.93;60.36
62632;BME280;48703;51.248;-0.546;2023-05-22T10:49:50;101489;;;14.94;61.58
62632;BME280;48703;51.248;-0.546;2023-05-22T10:52:53;101493;;;15.00;60.80
62632;BME280;48703;51.248;-0.546;2023-05-22T10:55:54;101492;;;15.00;60.21
62632;BME280;48703;51.248;-0.546;2023-05-22T10:58:56;101492;;;15.02;61.19
62632;BME280;48703;51.248;-0.546;2023-05-22T11:01:59;101491;;;15.11;61.51
62632;BME280;48703;51.248;-0.546;2023-05-22T11:05:10;101488;;;15.25;61.43
62632;BME280;48703;51.248;-0.546;2023-05-22T11:08:34;101485;;;15.42;61.37
62632;BME280;48703;51.248;-0.546;2023-05-22T11:11:11;101479;;;15.57;60.85
62632;BME280;48703;51.248;-0.546;2023-05-22T11:14:05;101474;;;15.68;61.15
62632;BME280;48703;51.248;-0.546;2023-05-22T11:17:06;101471;;;15.86;60.88
62632;BME280;48703;51.248;-0.546;2023-05-22T11:20:10;101468;;;16.04;60.46
62632;BME280;48703;51.248;-0.546;2023-05-22T11:23:10;101467;;;16.13;58.47
62632;BME280;48703;51.248;-0.546;2023-05-22T11:26:19;101459;;;16.16;59.19
62632;BME280;48703;51.248;-0.546;2023-05-22T11:29:14;101451;;;16.31;59.76
62632;BME280;48703;51.248;-0.546;2023-05-22T11:32:16;101448;;;16.38;58.98
62632;BME280;48703;51.248;-0.546;2023-05-22T11:35:18;101447;;;16.45;58.41
62632;BME280;48703;51.248;-0.546;2023-05-22T11:38:19;101449;;;16.54;58.76
62632;BME280;48703;51.248;-0.546;2023-05-22T11:41:21;101449;;;16.58;58.61
62632;BME280;48703;51.248;-0.546;2023-05-22T11:44:26;101446;;;16.65;58.73
62632;BME280;48703;51.248;-0.546;2023-05-22T11:47:25;101447;;;16.67;57.46
62632;BME280;48703;51.248;-0.546;2023-05-22T11:50:27;101450;;;16.73;58.23
62632;BME280;48703;51.248;-0.546;2023-05-22T11:53:30;101453;;;16.79;58.08
62632;BME280;48703;51.248;-0.546;2023-05-22T11:56:31;101453;;;16.78;57.73
62632;BME280;48703;51.248;-0.546;2023-05-22T11:59:33;101456;;;16.77;58.21
62632;BME280;48703;51.248;-0.546;2023-05-22T12:02:34;101454;;;16.74;59.06
62632;BME280;48703;51.248;-0.546;2023-05-22T12:05:36;101454;;;16.74;58.70
62632;BME280;48703;51.248;-0.546;2023-05-22T12:08:38;101458;;;16.73;57.98
62632;BME280;48703;51.248;-0.546;2023-05-22T12:11:43;101458;;;16.75;58.32
62632;BME280;48703;51.248;-0.546;2023-05-22T12:14:42;101455;;;16.78;57.88
62632;BME280;48703;51.248;-0.546;2023-05-22T12:17:44;101460;;;16.81;58.28
62632;BME280;48703;51.248;-0.546;2023-05-22T12:20:46;101458;;;16.84;57.60
62632;BME280;48703;51.248;-0.546;2023-05-22T12:23:48;101457;;;16.87;57.55
62632;BME280;48703;51.248;-0.546;2023-05-22T12:26:50;101449;;;16.92;57.89
62632;BME280;48703;51.248;-0.546;2023-05-22T12:29:54;101446;;;17.05;57.29
62632;BME280;48703;51.248;-0.546;2023-05-22T12:32:53;101440;;;17.20;57.47
62632;BME280;48703;51.248;-0.546;2023-05-22T12:35:55;101437;;;17.38;57.35
62632;BME280;48703;51.248;-0.546;2023-05-22T12:38:57;101439;;;17.48;56.87
62632;BME280;48703;51.248;-0.546;2023-05-22T12:41:59;101434;;;17.63;56.11
62632;BME280;48703;51.248;-0.546;2023-05-22T12:45:01;101435;;;17.79;55.87
62632;BME280;48703;51.248;-0.546;2023-05-22T12:48:02;101440;;;17.88;55.48
62632;BME280;48703;51.248;-0.546;2023-05-22T12:51:04;101442;;;17.95;54.86
62632;BME280;48703;51.248;-0.546;2023-05-22T12:54:06;101451;;;17.98;53.41
62632;BME280;48703;51.248;-0.546;2023-05-22T12:57:08;101448;;;17.95;52.91
62632;BME280;48703;51.248;-0.546;2023-05-22T13:00:10;101456;;;17.87;52.84
62632;BME280;48703;51.248;-0.546;2023-05-22T13:03:12;101463;;;17.87;53.15
62632;BME280;48703;51.248;-0.546;2023-05-22T13:06:14;101464;;;17.86;53.08
62632;BME280;48703;51.248;-0.546;2023-05-22T13:09:15;101465;;;17.85;52.83
62632;BME280;48703;51.248;-0.546;2023-05-22T13:12:17;101469;;;17.84;52.25
62632;BME280;48703;51.248;-0.546;2023-05-22T13:15:19;101468;;;17.79;51.17
62632;BME280;48703;51.248;-0.546;2023-05-22T13:18:21;101465;;;17.72;50.87
62632;BME280;48703;51.248;-0.546;2023-05-22T13:21:23;101463;;;17.73;51.20
62632;BME280;48703;51.248;-0.546;2023-05-22T13:24:25;101459;;;17.73;51.46
62632;BME280;48703;51.248;-0.546;2023-05-22T13:27:27;101463;;;17.76;51.42
62632;BME280;48703;51.248;-0.546;2023-05-22T13:30:29;101469;;;17.78;51.61
62632;BME280;48703;51.248;-0.546;2023-05-22T13:33:30;101472;;;17.81;51.23
62632;BME280;48703;51.248;-0.546;2023-05-22T13:36:32;101466;;;17.86;52.50
62632;BME280;48703;51.248;-0.546;2023-05-22T13:39:34;101467;;;17.92;51.81
62632;BME280;48703;51.248;-0.546;2023-05-22T13:42:36;101471;;;17.94;51.53
62632;BME280;48703;51.248;-0.546;2023-05-22T13:45:38;101470;;;17.96;52.31
62632;BME280;48703;51.248;-0.546;2023-05-22T13:48:40;101471;;;17.97;52.58
62632;BME280;48703;51.248;-0.546;2023-05-22T13:51:42;101473;;;17.97;52.99
62632;BME280;48703;51.248;-0.546;2023-05-22T13:54:43;101476;;;17.91;51.56
62632;BME280;48703;51.248;-0.546;2023-05-22T13:57:46;101468;;;17.84;52.37
62632;BME280;48703;51.248;-0.546;2023-05-22T14:00:47;101466;;;17.89;52.77
62632;BME280;48703;51.248;-0.546;2023-05-22T14:03:49;101462;;;17.93;52.91
62632;BME280;48703;51.248;-0.546;2023-05-22T14:06:51;101462;;;17.98;52.57
62632;BME280;48703;51.248;-0.546;2023-05-22T14:09:53;101459;;;18.01;52.88
62632;BME280;48703;51.248;-0.546;2023-05-22T14:12:55;101458;;;18.08;52.47
62632;BME280;48703;51.248;-0.546;2023-05-22T14:15:56;101457;;;18.04;52.55
62632;BME280;48703;51.248;-0.546;2023-05-22T14:18:59;101455;;;18.08;52.65
62632;BME280;48703;51.248;-0.546;2023-05-22T14:22:00;101445;;;18.07;52.11
62632;BME280;48703;51.248;-0.546;2023-05-22T14:25:02;101440;;;18.11;52.87
62632;BME280;48703;51.248;-0.546;2023-05-22T14:28:04;101439;;;18.17;52.70
62632;BME280;48703;51.248;-0.546;2023-05-22T14:31:06;101434;;;18.26;53.99
62632;BME280;48703;51.248;-0.546;2023-05-22T14:34:08;101433;;;18.28;53.42
62632;BME280;48703;51.248;-0.546;2023-05-22T14:37:10;101433;;;18.29;52.57
62632;BME280;48703;51.248;-0.546;2023-05-22T14:40:12;101430;;;18.34;52.70
62632;BME280;48703;51.248;-0.546;2023-05-22T14:43:13;101429;;;18.40;52.34
62632;BME280;48703;51.248;-0.546;2023-05-22T14:46:15;101430;;;18.46;52.11
62632;BME280;48703;51.248;-0.546;2023-05-22T14:49:17;101431;;;18.50;53.19
62632;BME280;48703;51.248;-0.546;2023-05-22T14:52:19;101432;;;18.56;52.12
62632;BME280;48703;51.248;-0.546;2023-05-22T14:55:21;101434;;;18.55;51.39
62632;BME280;48703;51.248;-0.546;2023-05-22T14:58:23;101437;;;18.54;51.38
62632;BME280;48703;51.248;-0.546;2023-05-22T15:01:24;101432;;;18.54;51.81
62632;BME280;48703;51.248;-0.546;2023-05-22T15:04:26;101433;;;18.55;52.05
62632;BME280;48703;51.248;-0.546;2023-05-22T15:07:28;101437;;;18.53;52.03
62632;BME280;48703;51.248;-0.546;2023-05-22T15:10:30;101434;;;18.55;52.11
62632;BME280;48703;51.248;-0.546;2023-05-22T15:13:32;101434;;;18.58;51.52
62632;BME280;48703;51.248;-0.546;2023-05-22T15:16:34;101430;;;18.63;51.80
62632;BME280;48703;51.248;-0.546;2023-05-22T15:19:36;101436;;;18.55;50.59
62632;BME280;48703;51.248;-0.546;2023-05-22T15:22:38;101435;;;18.54;51.75
62632;BME280;48703;51.248;-0.546;2023-05-22T15:25:39;101435;;;18.69;51.89
62632;BME280;48703;51.248;-0.546;2023-05-22T15:28:41;101435;;;18.80;52.09
62632;BME280;48703;51.248;-0.546;2023-05-22T15:31:43;101437;;;18.99;51.81
62632;BME280;48703;51.248;-0.546;2023-05-22T15:34:45;101437;;;19.16;51.53
62632;BME280;48703;51.248;-0.546;2023-05-22T15:37:47;101435;;;19.36;51.28
62632;BME280;48703;51.248;-0.546;2023-05-22T15:40:49;101435;;;19.49;51.62
62632;BME280;48703;51.248;-0.546;2023-05-22T15:43:51;101434;;;19.60;50.63
62632;BME280;48703;51.248;-0.546;2023-05-22T15:46:52;101433;;;19.73;51.53
62632;BME280;48703;51.248;-0.546;2023-05-22T15:49:54;101434;;;19.85;50.72
62632;BME280;48703;51.248;-0.546;2023-05-22T15:52:56;101437;;;19.91;50.04
62632;BME280;48703;51.248;-0.546;2023-05-22T15:55:58;101441;;;19.94;49.93
62632;BME280;48703;51.248;-0.546;2023-05-22T15:59:00;101441;;;19.95;49.23
62632;BME280;48703;51.248;-0.546;2023-05-22T16:02:02;101446;;;19.99;48.94
62632;BME280;48703;51.248;-0.546;2023-05-22T16:05:04;101447;;;20.02;49.51
62632;BME280;48703;51.248;-0.546;2023-05-22T16:08:06;101451;;;20.10;48.91
62632;BME280;48703;51.248;-0.546;2023-05-22T16:11:07;101449;;;20.16;48.52
62632;BME280;48703;51.248;-0.546;2023-05-22T16:14:09;101455;;;20.27;48.49